sensor_id;sensor_type;location;lat;lon;timestamp;pressure;altitude;pressure_sealevel;temperature;humidity
72570;BME280;60594;50.204;8.844;2022-11-30T00:00:20;100441.22;;;7.03;100.00
72570;BME280;60594;50.204;8.844;2022-11-30T00:03:06;100449.44;;;7.13;100.00
72570;BME280;60594;50.204;8.844;2022-11-30T00:05:33;100445.84;;;7.13;100.00
72570;BME280;60594;50.204;8.844;2022-11-30T00:08:00;100450.31;;;7.13;100.00
72570;BME280;60594;50.204;8.844;2022-11-30T00:10:26;100448.69;;;7.11;100.00
72570;BME280;60594;50.204;8.844;2022-11-30T00:12:53;100445.66;;;7.02;100.00
72570;BME280;60594;50.204;8.844;2022-11-30T00:15:19;100436.69;;;7.05;100.00
72570;BME280;60594;50.204;8.844;2022-11-30T00:17:46;100437.88;;;7.13;100.00
72570;BME280;60594;50.204;8.844;2022-11-30T00:20:14;100437.59;;;7.18;100.00
72570;BME280;60594;50.204;8.844;2022-11-30T00:22:41;100424.75;;;7.12;100.00
72570;BME280;60594;50.204;8.844;2022-11-30T00:25:08;100426.53;;;7.12;100.00
72570;BME280;60594;50.204;8.844;2022-11-30T00:27:34;100419.66;;;7.09;100.00
72570;BME280;60594;50.204;8.844;2022-11-30T00:30:01;100434.78;;;7.21;100.00
72570;BME280;60594;50.204;8.844;2022-11-30T00:32:27;100446.59;;;7.30;100.00
72570;BME280;60594;50.204;8.844;2022-11-30T00:34:54;100438.94;;;7.25;100.00
72570;BME280;60594;50.204;8.844;2022-11-30T00:37:20;100434.41;;;7.27;100.00
72570;BME280;60594;50.204;8.844;2022-11-30T00:39:47;100433.34;;;7.30;100.00
72570;BME280;60594;50.204;8.844;2022-11-30T00:42:13;100436.81;;;7.30;100.00
72570;BME280;60594;50.204;8.844;2022-11-30T00:44:40;100431.94;;;7.24;100.00
72570;BME280;60594;50.204;8.844;2022-11-30T00:47:06;100437.88;;;7.13;100.00
72570;BME280;60594;50.204;8.844;2022-11-30T00:49:33;100439.03;;;7.09;100.00
72570;BME280;60594;50.204;8.844;2022-11-30T00:52:00;100439.13;;;7.08;100.00
72570;BME280;60594;50.204;8.844;2022-11-30T00:54:27;100426.34;;;7.00;100.00
72570;BME280;60594;50.204;8.844;2022-11-30T00:56:53;100439.78;;;6.97;100.00
72570;BME280;60594;50.204;8.844;2022-11-30T00:59:19;100435.34;;;6.98;100.00
72570;BME280;60594;50.204;8.844;2022-11-30T01:01:46;100427.88;;;6.90;100.00
72570;BME280;60594;50.204;8.844;2022-11-30T01:04:12;100426.81;;;6.93;100.00
72570;BME280;60594;50.204;8.844;2022-11-30T01:06:38;100411.50;;;6.84;100.00
72570;BME280;60594;50.204;8.844;2022-11-30T01:09:05;100424.75;;;6.84;100.00
72570;BME280;60594;50.204;8.844;2022-11-30T01:11:31;100424.75;;;6.84;100.00
72570;BME280;60594;50.204;8.844;2022-11-30T01:13:58;100433.91;;;6.78;100.00
72570;BME280;60594;50.204;8.844;2022-11-30T01:16:28;100440.66;;;6.84;100.00
72570;BME280;60594;50.204;8.844;2022-11-30T01:18:55;100434.78;;;6.79;100.00
72570;BME280;60594;50.204;8.844;2022-11-30T01:21:24;100442.06;;;6.89;100.00
72570;BME280;60594;50.204;8.844;2022-11-30T01:23:51;100442.72;;;6.93;100.00
72570;BME280;60594;50.204;8.844;2022-11-30T01:26:18;100439.69;;;6.99;100.00
72570;BME280;60594;50.204;8.844;2022-11-30T01:28:49;100436.97;;;7.00;100.00
72570;BME280;60594;50.204;8.844;2022-11-30T01:31:15;100425.50;;;7.00;100.00
72570;BME280;60594;50.204;8.844;2022-11-30T01:33:42;100429.38;;;6.94;100.00
72570;BME280;60594;50.204;8.844;2022-11-30T01:36:11;100424.38;;;6.90;100.00
72570;BME280;60594;50.204;8.844;2022-11-30T01:38:43;100420.97;;;6.88;100.00
72570;BME280;60594;50.204;8.844;2022-11-30T01:41:12;100435.25;;;6.85;100.00
72570;BME280;60594;50.204;8.844;2022-11-30T01:48:44;100442.53;;;6.96;100.00
72570;BME280;60594;50.204;8.844;2022-11-30T01:51:10;100432.72;;;6.98;100.00
72570;BME280;60594;50.204;8.844;2022-11-30T01:53:37;100437.59;;;7.04;100.00
72570;BME280;60594;50.204;8.844;2022-11-30T01:56:03;100440.66;;;6.98;100.00
72570;BME280;60594;50.204;8.844;2022-11-30T01:58:30;100443.00;;;7.02;100.00
72570;BME280;60594;50.204;8.844;2022-11-30T02:00:58;100440.84;;;6.95;100.00
72570;BME280;60594;50.204;8.844;2022-11-30T02:03:33;100441.97;;;6.91;100.00
72570;BME280;60594;50.204;8.844;2022-11-30T02:06:00;100433.44;;;6.86;100.00
72570;BME280;60594;50.204;8.844;2022-11-30T02:08:27;100442.16;;;6.88;100.00
72570;BME280;60594;50.204;8.844;2022-11-30T02:10:58;100434.13;;;6.89;100.00
72570;BME280;60594;50.204;8.844;2022-11-30T02:19:06;100444.16;;;6.84;100.00
72570;BME280;60594;50.204;8.844;2022-11-30T02:21:50;100445.25;;;6.80;100.00
72570;BME280;60594;50.204;8.844;2022-11-30T02:27:26;100449.91;;;6.77;100.00
72570;BME280;60594;50.204;8.844;2022-11-30T02:30:08;100449.44;;;6.70;100.00
72570;BME280;60594;50.204;8.844;2022-11-30T02:32:46;100444.75;;;6.60;100.00
72570;BME280;60594;50.204;8.844;2022-11-30T02:35:17;100434.16;;;6.60;100.00
72570;BME280;60594;50.204;8.844;2022-11-30T02:37:46;100441.09;;;6.76;100.00
72570;BME280;60594;50.204;8.844;2022-11-30T02:40:16;100451.50;;;6.79;100.00
72570;BME280;60594;50.204;8.844;2022-11-30T02:42:46;100442.53;;;6.82;100.00
72570;BME280;60594;50.204;8.844;2022-11-30T02:45:14;100447.72;;;6.83;100.00
72570;BME280;60594;50.204;8.844;2022-11-30T02:48:03;100448.22;;;6.90;100.00
72570;BME280;60594;50.204;8.844;2022-11-30T02:50:36;100445.34;;;6.65;100.00
72570;BME280;60594;50.204;8.844;2022-11-30T02:53:04;100454.81;;;6.69;100.00
72570;BME280;60594;50.204;8.844;2022-11-30T02:55:31;100454.53;;;6.73;100.00
72570;BME280;60594;50.204;8.844;2022-11-30T02:57:57;100457.28;;;6.72;100.00
72570;BME280;60594;50.204;8.844;2022-11-30T03:00:24;100455.19;;;6.77;100.00
72570;BME280;60594;50.204;8.844;2022-11-30T03:02:50;100453.59;;;6.74;100.00
72570;BME280;60594;50.204;8.844;2022-11-30T03:05:17;100453.69;;;6.73;100.00
72570;BME280;60594;50.204;8.844;2022-11-30T03:07:43;100457.00;;;6.90;100.00
72570;BME280;60594;50.204;8.844;2022-11-30T03:10:09;100460.34;;;6.94;100.00
72570;BME280;60594;50.204;8.844;2022-11-30T03:12:36;100465.53;;;7.09;100.00
72570;BME280;60594;50.204;8.844;2022-11-30T03:15:03;100459.38;;;6.95;100.00
72570;BME280;60594;50.204;8.844;2022-11-30T03:17:30;100466.47;;;7.08;100.00
72570;BME280;60594;50.204;8.844;2022-11-30T03:19:56;100466.56;;;7.07;100.00
72570;BME280;60594;50.204;8.844;2022-11-30T03:22:23;100456.44;;;7.13;100.00
72570;BME280;60594;50.204;8.844;2022-11-30T03:24:50;100458.72;;;7.20;100.00
72570;BME280;60594;50.204;8.844;2022-11-30T03:27:16;100459.75;;;7.17;100.00
72570;BME280;60594;50.204;8.844;2022-11-30T03:29:43;100459.94;;;7.00;100.00
72570;BME280;60594;50.204;8.844;2022-11-30T03:32:09;100471.94;;;6.91;100.00
72570;BME280;60594;50.204;8.844;2022-11-30T03:34:35;100469.72;;;6.99;100.00
72570;BME280;60594;50.204;8.844;2022-11-30T03:37:02;100464.31;;;7.01;100.00
72570;BME280;60594;50.204;8.844;2022-11-30T03:39:28;100460.13;;;6.97;100.00
72570;BME280;60594;50.204;8.844;2022-11-30T03:41:55;100456.38;;;7.01;100.00
72570;BME280;60594;50.204;8.844;2022-11-30T03:44:22;100459.19;;;6.98;100.00
72570;BME280;60594;50.204;8.844;2022-11-30T03:46:48;100463.91;;;7.07;100.00
72570;BME280;60594;50.204;8.844;2022-11-30T03:49:14;100464.59;;;7.11;100.00
72570;BME280;60594;50.204;8.844;2022-11-30T03:51:41;100463.19;;;7.05;100.00
72570;BME280;60594;50.204;8.844;2022-11-30T03:54:07;100458.25;;;6.99;100.00
72570;BME280;60594;50.204;8.844;2022-11-30T03:56:33;100461.38;;;7.05;100.00
72570;BME280;60594;50.204;8.844;2022-11-30T03:59:00;100456.84;;;7.07;100.00
72570;BME280;60594;50.204;8.844;2022-11-30T04:01:26;100467.16;;;7.12;100.00
72570;BME280;60594;50.204;8.844;2022-11-30T04:03:53;100470.81;;;7.09;100.00
72570;BME280;60594;50.204;8.844;2022-11-30T04:06:20;100476.34;;;7.07;100.00
72570;BME280;60594;50.204;8.844;2022-11-30T04:08:47;100472.81;;;6.92;100.00
72570;BME280;60594;50.204;8.844;2022-11-30T04:11:13;100465.22;;;6.86;100.00
72570;BME280;60594;50.204;8.844;2022-11-30T04:13:41;100478.28;;;6.89;100.00
72570;BME280;60594;50.204;8.844;2022-11-30T04:16:08;100474.53;;;7.07;100.00
72570;BME280;60594;50.204;8.844;2022-11-30T04:18:35;100471.41;;;7.15;100.00
72570;BME280;60594;50.204;8.844;2022-11-30T04:21:02;100473.75;;;7.19;100.00
72570;BME280;60594;50.204;8.844;2022-11-30T04:23:31;100475.66;;;7.31;100.00
72570;BME280;60594;50.204;8.844;2022-11-30T04:25:58;100476.22;;;7.22;100.00
72570;BME280;60594;50.204;8.844;2022-11-30T04:28:24;100470.63;;;7.27;100.00
72570;BME280;60594;50.204;8.844;2022-11-30T04:30:52;100474.53;;;7.35;100.00
72570;BME280;60594;50.204;8.844;2022-11-30T04:33:18;100473.75;;;7.33;100.00
72570;BME280;60594;50.204;8.844;2022-11-30T04:35:47;100465.72;;;7.35;100.00
72570;BME280;60594;50.204;8.844;2022-11-30T04:38:16;100474.63;;;7.20;100.00
72570;BME280;60594;50.204;8.844;2022-11-30T04:40:43;100459.94;;;7.28;100.00
72570;BME280;60594;50.204;8.844;2022-11-30T04:43:10;100468.09;;;7.25;100.00
72570;BME280;60594;50.204;8.844;2022-11-30T04:45:37;100462.19;;;7.34;100.00
72570;BME280;60594;50.204;8.844;2022-11-30T04:48:05;100471.50;;;7.27;100.00
72570;BME280;60594;50.204;8.844;2022-11-30T04:50:32;100469.03;;;7.38;100.00
72570;BME280;60594;50.204;8.844;2022-11-30T04:52:59;100471.78;;;7.23;100.00
72570;BME280;60594;50.204;8.844;2022-11-30T04:55:25;100470.91;;;7.22;100.00
72570;BME280;60594;50.204;8.844;2022-11-30T04:57:52;100468.44;;;7.33;100.00
72570;BME280;60594;50.204;8.844;2022-11-30T05:00:18;100466.94;;;7.43;100.00
72570;BME280;60594;50.204;8.844;2022-11-30T05:02:45;100462.38;;;7.45;100.00
72570;BME280;60594;50.204;8.844;2022-11-30T05:05:11;100473.75;;;7.47;100.00
72570;BME280;60594;50.204;8.844;2022-11-30T05:07:38;100472.53;;;7.39;100.00
72570;BME280;60594;50.204;8.844;2022-11-30T05:10:06;100467.22;;;7.39;100.00
72570;BME280;60594;50.204;8.844;2022-11-30T05:12:33;100472.25;;;7.43;100.00
72570;BME280;60594;50.204;8.844;2022-11-30T05:14:59;100475.53;;;7.47;100.00
72570;BME280;60594;50.204;8.844;2022-11-30T05:17:26;100479.91;;;7.48;100.00
72570;BME280;60594;50.204;8.844;2022-11-30T05:19:53;100484.16;;;7.36;100.00
72570;BME280;60594;50.204;8.844;2022-11-30T05:22:21;100477.34;;;7.18;100.00
72570;BME280;60594;50.204;8.844;2022-11-30T05:24:47;100485.78;;;6.96;100.00
72570;BME280;60594;50.204;8.844;2022-11-30T05:27:14;100473.69;;;6.92;100.00
72570;BME280;60594;50.204;8.844;2022-11-30T05:29:41;100485.91;;;7.09;100.00
72570;BME280;60594;50.204;8.844;2022-11-30T05:32:07;100487.78;;;7.21;100.00
72570;BME280;60594;50.204;8.844;2022-11-30T05:34:34;100480.28;;;7.42;100.00
72570;BME280;60594;50.204;8.844;2022-11-30T05:37:01;100487.00;;;7.47;100.00
72570;BME280;60594;50.204;8.844;2022-11-30T05:39:27;100495.59;;;7.51;100.00
72570;BME280;60594;50.204;8.844;2022-11-30T05:41:55;100482.06;;;7.55;100.00
72570;BME280;60594;50.204;8.844;2022-11-30T05:44:23;100493.25;;;7.46;100.00
72570;BME280;60594;50.204;8.844;2022-11-30T05:46:50;100489.66;;;7.47;100.00
72570;BME280;60594;50.204;8.844;2022-11-30T05:49:16;100490.69;;;7.59;100.00
72570;BME280;60594;50.204;8.844;2022-11-30T05:51:43;100500.53;;;7.57;100.00
72570;BME280;60594;50.204;8.844;2022-11-30T05:54:09;100493.16;;;7.48;100.00
72570;BME280;60594;50.204;8.844;2022-11-30T05:56:36;100498.47;;;7.34;100.00
72570;BME280;60594;50.204;8.844;2022-11-30T05:59:02;100504.59;;;7.34;100.00
72570;BME280;60594;50.204;8.844;2022-11-30T06:01:29;100501.22;;;7.46;100.00
72570;BME280;60594;50.204;8.844;2022-11-30T06:03:55;100502.63;;;7.52;100.00
72570;BME280;60594;50.204;8.844;2022-11-30T06:06:22;100496.00;;;7.59;100.00
72570;BME280;60594;50.204;8.844;2022-11-30T06:08:50;100496.63;;;7.62;100.00
72570;BME280;60594;50.204;8.844;2022-11-30T06:11:17;100497.41;;;7.64;100.00
72570;BME280;60594;50.204;8.844;2022-11-30T06:13:43;100502.91;;;7.61;100.00
72570;BME280;60594;50.204;8.844;2022-11-30T06:16:11;100504.78;;;7.59;100.00
72570;BME280;60594;50.204;8.844;2022-11-30T06:18:38;100511.50;;;7.51;100.00
72570;BME280;60594;50.204;8.844;2022-11-30T06:21:07;100504.03;;;7.57;100.00
72570;BME280;60594;50.204;8.844;2022-11-30T06:23:34;100505.75;;;7.58;100.00
72570;BME280;60594;50.204;8.844;2022-11-30T06:26:05;100510.97;;;7.46;100.00
72570;BME280;60594;50.204;8.844;2022-11-30T06:28:32;100512.19;;;7.26;100.00
72570;BME280;60594;50.204;8.844;2022-11-30T06:30:59;100514.56;;;7.45;100.00
72570;BME280;60594;50.204;8.844;2022-11-30T06:33:26;100514.94;;;7.53;100.00
72570;BME280;60594;50.204;8.844;2022-11-30T06:35:53;100511.03;;;7.58;100.00
72570;BME280;60594;50.204;8.844;2022-11-30T06:38:22;100518.63;;;7.50;100.00
72570;BME280;60594;50.204;8.844;2022-11-30T06:40:49;100518.22;;;7.56;100.00
72570;BME280;60594;50.204;8.844;2022-11-30T06:43:17;100520.41;;;7.64;100.00
72570;BME280;60594;50.204;8.844;2022-11-30T06:45:45;100513.09;;;7.67;100.00
72570;BME280;60594;50.204;8.844;2022-11-30T06:48:13;100518.72;;;7.63;100.00
72570;BME280;60594;50.204;8.844;2022-11-30T06:50:40;100516.06;;;7.63;100.00
72570;BME280;60594;50.204;8.844;2022-11-30T06:53:07;100516.91;;;7.63;100.00
72570;BME280;60594;50.204;8.844;2022-11-30T06:55:34;100524.41;;;7.57;100.00
72570;BME280;60594;50.204;8.844;2022-11-30T06:58:08;100524.84;;;7.63;100.00
72570;BME280;60594;50.204;8.844;2022-11-30T07:00:35;100520.06;;;7.56;100.00
72570;BME280;60594;50.204;8.844;2022-11-30T07:03:03;100525.81;;;7.62;100.00
72570;BME280;60594;50.204;8.844;2022-11-30T07:05:33;100522.22;;;7.63;100.00
72570;BME280;60594;50.204;8.844;2022-11-30T07:08:04;100521.28;;;7.64;100.00
72570;BME280;60594;50.204;8.844;2022-11-30T07:10:31;100524.47;;;7.69;100.00
72570;BME280;60594;50.204;8.844;2022-11-30T07:13:01;100523.63;;;7.69;100.00
72570;BME280;60594;50.204;8.844;2022-11-30T07:15:27;100527.31;;;7.66;100.00
72570;BME280;60594;50.204;8.844;2022-11-30T07:17:54;100530.75;;;7.68;100.00
72570;BME280;60594;50.204;8.844;2022-11-30T07:20:21;100525.44;;;7.68;100.00
72570;BME280;60594;50.204;8.844;2022-11-30T07:22:47;100527.91;;;7.71;100.00
72570;BME280;60594;50.204;8.844;2022-11-30T07:25:14;100527.69;;;7.74;100.00
72570;BME280;60594;50.204;8.844;2022-11-30T07:27:59;100525.25;;;7.71;100.00
72570;BME280;60594;50.204;8.844;2022-11-30T07:30:26;100528.75;;;7.72;100.00
72570;BME280;60594;50.204;8.844;2022-11-30T07:32:52;100527.78;;;7.73;100.00
72570;BME280;60594;50.204;8.844;2022-11-30T07:35:19;100527.22;;;7.68;100.00
72570;BME280;60594;50.204;8.844;2022-11-30T07:37:45;100526.19;;;7.70;100.00
72570;BME280;60594;50.204;8.844;2022-11-30T07:40:12;100532.44;;;7.69;100.00
72570;BME280;60594;50.204;8.844;2022-11-30T07:42:38;100536.97;;;7.67;100.00
72570;BME280;60594;50.204;8.844;2022-11-30T07:45:05;100544.94;;;7.67;100.00
72570;BME280;60594;50.204;8.844;2022-11-30T07:47:32;100544.00;;;7.68;100.00
72570;BME280;60594;50.204;8.844;2022-11-30T07:49:58;100539.63;;;7.67;100.00
72570;BME280;60594;50.204;8.844;2022-11-30T07:52:25;100539.44;;;7.70;100.00
72570;BME280;60594;50.204;8.844;2022-11-30T07:54:51;100538.38;;;7.73;100.00
72570;BME280;60594;50.204;8.844;2022-11-30T07:57:18;100543.69;;;7.73;100.00
72570;BME280;60594;50.204;8.844;2022-11-30T07:59:44;100547.50;;;7.69;100.00
72570;BME280;60594;50.204;8.844;2022-11-30T08:02:11;100553.09;;;7.64;100.00
72570;BME280;60594;50.204;8.844;2022-11-30T08:04:38;100554.03;;;7.63;100.00
72570;BME280;60594;50.204;8.844;2022-11-30T08:07:06;100546.84;;;7.65;100.00
72570;BME280;60594;50.204;8.844;2022-11-30T08:09:33;100546.84;;;7.65;100.00
72570;BME280;60594;50.204;8.844;2022-11-30T08:11:59;100548.72;;;7.63;100.00
72570;BME280;60594;50.204;8.844;2022-11-30T08:14:26;100548.09;;;7.60;100.00
72570;BME280;60594;50.204;8.844;2022-11-30T08:16:53;100548.44;;;7.68;100.00
72570;BME280;60594;50.204;8.844;2022-11-30T08:19:20;100558.00;;;7.70;100.00
72570;BME280;60594;50.204;8.844;2022-11-30T08:21:46;100549.78;;;7.75;100.00
72570;BME280;60594;50.204;8.844;2022-11-30T08:24:13;100541.72;;;7.76;100.00
72570;BME280;60594;50.204;8.844;2022-11-30T08:26:40;100553.56;;;7.71;100.00
72570;BME280;60594;50.204;8.844;2022-11-30T08:29:09;100555.34;;;7.70;100.00
72570;BME280;60594;50.204;8.844;2022-11-30T08:31:38;100552.63;;;7.72;100.00
72570;BME280;60594;50.204;8.844;2022-11-30T08:34:10;100553.47;;;7.72;100.00
72570;BME280;60594;50.204;8.844;2022-11-30T08:36:37;100555.25;;;7.72;100.00
72570;BME280;60594;50.204;8.844;2022-11-30T08:39:05;100556.22;;;7.71;100.00
72570;BME280;60594;50.204;8.844;2022-11-30T08:41:33;100548.16;;;7.72;100.00
72570;BME280;60594;50.204;8.844;2022-11-30T08:44:00;100554.88;;;7.78;100.00
72570;BME280;60594;50.204;8.844;2022-11-30T08:46:27;100554.69;;;7.81;100.00
72570;BME280;60594;50.204;8.844;2022-11-30T08:48:54;100566.72;;;7.86;100.00
72570;BME280;60594;50.204;8.844;2022-11-30T08:51:20;100559.06;;;7.82;100.00
72570;BME280;60594;50.204;8.844;2022-11-30T08:53:50;100560.75;;;7.83;100.00
72570;BME280;60594;50.204;8.844;2022-11-30T08:56:19;100563.50;;;7.81;100.00
72570;BME280;60594;50.204;8.844;2022-11-30T08:58:46;100572.03;;;7.86;100.00
72570;BME280;60594;50.204;8.844;2022-11-30T09:01:18;100575.84;;;7.82;100.00
72570;BME280;60594;50.204;8.844;2022-11-30T09:03:49;100571.34;;;7.83;100.00
72570;BME280;60594;50.204;8.844;2022-11-30T09:06:19;100576.22;;;7.76;100.00
72570;BME280;60594;50.204;8.844;2022-11-30T09:08:47;100576.41;;;7.73;100.00
72570;BME280;60594;50.204;8.844;2022-11-30T09:11:20;100581.31;;;7.79;100.00
72570;BME280;60594;50.204;8.844;2022-11-30T09:13:47;100578.09;;;7.74;100.00
72570;BME280;60594;50.204;8.844;2022-11-30T09:16:15;100582.56;;;7.74;100.00
72570;BME280;60594;50.204;8.844;2022-11-30T09:18:42;100580.00;;;7.86;100.00
72570;BME280;60594;50.204;8.844;2022-11-30T09:21:12;100584.06;;;7.92;100.00
72570;BME280;60594;50.204;8.844;2022-11-30T09:23:40;100581.50;;;7.90;100.00
72570;BME280;60594;50.204;8.844;2022-11-30T09:26:08;100582.16;;;7.94;100.00
72570;BME280;60594;50.204;8.844;2022-11-30T09:28:36;100586.91;;;7.89;100.00
72570;BME280;60594;50.204;8.844;2022-11-30T09:31:15;100579.50;;;7.94;100.00
72570;BME280;60594;50.204;8.844;2022-11-30T09:33:42;100588.03;;;7.99;100.00
72570;BME280;60594;50.204;8.844;2022-11-30T09:36:15;100581.88;;;7.98;100.00
72570;BME280;60594;50.204;8.844;2022-11-30T09:38:42;100588.03;;;7.99;100.00
72570;BME280;60594;50.204;8.844;2022-11-30T09:46:42;100581.59;;;8.03;100.00
72570;BME280;60594;50.204;8.844;2022-11-30T09:49:18;100580.91;;;7.99;100.00
72570;BME280;60594;50.204;8.844;2022-11-30T09:51:49;100584.91;;;7.92;100.00
72570;BME280;60594;50.204;8.844;2022-11-30T09:54:24;100583.88;;;7.81;100.00
72570;BME280;60594;50.204;8.844;2022-11-30T09:57:08;100585.31;;;7.72;100.00
72570;BME280;60594;50.204;8.844;2022-11-30T09:59:39;100584.63;;;7.83;100.00
72570;BME280;60594;50.204;8.844;2022-11-30T10:02:15;100583.28;;;7.90;100.00
72570;BME280;60594;50.204;8.844;2022-11-30T10:04:43;100589.47;;;7.90;100.00
72570;BME280;60594;50.204;8.844;2022-11-30T10:07:43;100593.72;;;7.93;100.00
72570;BME280;60594;50.204;8.844;2022-11-30T10:10:27;100593.22;;;8.00;100.00
72570;BME280;60594;50.204;8.844;2022-11-30T10:18:47;100596.66;;;7.74;100.00
72570;BME280;60594;50.204;8.844;2022-11-30T10:26:36;100581.06;;;8.10;100.00
72570;BME280;60594;50.204;8.844;2022-11-30T10:29:13;100584.50;;;8.12;100.00
72570;BME280;60594;50.204;8.844;2022-11-30T10:31:43;100585.50;;;7.83;100.00
72570;BME280;60594;50.204;8.844;2022-11-30T10:34:17;100581.13;;;7.82;100.00
72570;BME280;60594;50.204;8.844;2022-11-30T10:36:50;100581.31;;;7.79;100.00
72570;BME280;60594;50.204;8.844;2022-11-30T10:39:23;100588.91;;;7.71;100.00
72570;BME280;60594;50.204;8.844;2022-11-30T10:41:55;100582.56;;;7.60;100.00
72570;BME280;60594;50.204;8.844;2022-11-30T10:44:32;100571.09;;;7.59;100.00
72570;BME280;60594;50.204;8.844;2022-11-30T10:47:06;100569.84;;;7.65;100.00
72570;BME280;60594;50.204;8.844;2022-11-30T10:49:38;100576.47;;;7.72;100.00
72570;BME280;60594;50.204;8.844;2022-11-30T10:52:07;100575.72;;;7.84;100.00
72570;BME280;60594;50.204;8.844;2022-11-30T10:54:35;100578.31;;;7.71;100.00
72570;BME280;60594;50.204;8.844;2022-11-30T10:57:03;100570.34;;;7.57;100.00
72570;BME280;60594;50.204;8.844;2022-11-30T10:59:45;100570.13;;;7.74;100.00
72570;BME280;60594;50.204;8.844;2022-11-30T11:05:18;100573.34;;;7.93;100.00
72570;BME280;60594;50.204;8.844;2022-11-30T11:10:44;100564.25;;;7.83;100.00
72570;BME280;60594;50.204;8.844;2022-11-30T11:13:17;100570.03;;;7.76;100.00
72570;BME280;60594;50.204;8.844;2022-11-30T11:15:57;100574.41;;;7.63;100.00
72570;BME280;60594;50.204;8.844;2022-11-30T11:18:32;100574.59;;;7.60;100.00
72570;BME280;60594;50.204;8.844;2022-11-30T11:25:59;100556.03;;;7.74;100.00
72570;BME280;60594;50.204;8.844;2022-11-30T11:28:27;100560.28;;;7.76;100.00
72570;BME280;60594;50.204;8.844;2022-11-30T11:30:55;100563.28;;;7.98;100.00
72570;BME280;60594;50.204;8.844;2022-11-30T11:33:24;100568.63;;;7.84;100.00
72570;BME280;60594;50.204;8.844;2022-11-30T11:36:14;100574.44;;;8.03;100.00
72570;BME280;60594;50.204;8.844;2022-11-30T11:38:42;100576.63;;;8.11;100.00
72570;BME280;60594;50.204;8.844;2022-11-30T11:41:29;100573.66;;;8.15;99.72
72570;BME280;60594;50.204;8.844;2022-11-30T11:46:53;100566.22;;;8.22;98.85
72570;BME280;60594;50.204;8.844;2022-11-30T11:49:25;100559.06;;;8.22;99.29
72570;BME280;60594;50.204;8.844;2022-11-30T11:52:02;100564.38;;;8.22;99.65
72570;BME280;60594;50.204;8.844;2022-11-30T11:54:37;100561.53;;;8.25;99.71
72570;BME280;60594;50.204;8.844;2022-11-30T11:57:08;100562.31;;;8.27;99.51
72570;BME280;60594;50.204;8.844;2022-11-30T11:59:58;100562.84;;;8.32;99.10
72570;BME280;60594;50.204;8.844;2022-11-30T12:02:47;100564.63;;;8.32;99.85
72570;BME280;60594;50.204;8.844;2022-11-30T12:05:40;100563.50;;;8.36;99.05
72570;BME280;60594;50.204;8.844;2022-11-30T12:08:26;100560.72;;;8.37;98.83
72570;BME280;60594;50.204;8.844;2022-11-30T12:11:07;100567.88;;;8.37;98.78
72570;BME280;60594;50.204;8.844;2022-11-30T12:13:39;100560.53;;;8.40;98.18
72570;BME280;60594;50.204;8.844;2022-11-30T12:16:23;100566.81;;;8.39;98.42
72570;BME280;60594;50.204;8.844;2022-11-30T12:27:24;100572.16;;;8.25;99.17
72570;BME280;60594;50.204;8.844;2022-11-30T12:38:24;100568.66;;;8.11;100.00
72570;BME280;60594;50.204;8.844;2022-11-30T12:52:04;100564.66;;;8.18;100.00
72570;BME280;60594;50.204;8.844;2022-11-30T12:54:53;100563.63;;;8.20;100.00
72570;BME280;60594;50.204;8.844;2022-11-30T12:57:34;100567.03;;;8.22;100.00
72570;BME280;60594;50.204;8.844;2022-11-30T13:00:28;100575.47;;;8.15;100.00
72570;BME280;60594;50.204;8.844;2022-11-30T13:05:56;100579.09;;;8.14;99.72
72570;BME280;60594;50.204;8.844;2022-11-30T13:08:29;100573.97;;;8.25;99.28
72570;BME280;60594;50.204;8.844;2022-11-30T13:11:05;100562.22;;;8.29;99.23
72570;BME280;60594;50.204;8.844;2022-11-30T13:13:35;100560.97;;;8.34;99.87
72570;BME280;60594;50.204;8.844;2022-11-30T13:16:03;100560.44;;;8.42;97.66
72570;BME280;60594;50.204;8.844;2022-11-30T13:18:31;100554.16;;;8.43;96.30
72570;BME280;60594;50.204;8.844;2022-11-30T13:23:54;100570.06;;;8.16;99.30
72570;BME280;60594;50.204;8.844;2022-11-30T13:32:10;100570.22;;;8.41;97.54
72570;BME280;60594;50.204;8.844;2022-11-30T13:34:38;100556.41;;;8.22;97.96
72570;BME280;60594;50.204;8.844;2022-11-30T13:37:06;100559.84;;;8.24;98.59
72570;BME280;60594;50.204;8.844;2022-11-30T13:39:50;100568.09;;;8.06;98.69
72570;BME280;60594;50.204;8.844;2022-11-30T13:44:52;100561.09;;;8.05;99.38
72570;BME280;60594;50.204;8.844;2022-11-30T13:47:32;100564.50;;;8.07;100.00
72570;BME280;60594;50.204;8.844;2022-11-30T13:50:05;100559.94;;;8.23;99.55
72570;BME280;60594;50.204;8.844;2022-11-30T13:58:10;100560.91;;;8.22;99.13
72570;BME280;60594;50.204;8.844;2022-11-30T14:10:47;100570.28;;;8.13;98.50
72570;BME280;60594;50.204;8.844;2022-11-30T14:23:39;100575.56;;;8.27;98.21
72570;BME280;60594;50.204;8.844;2022-11-30T14:26:14;100573.97;;;8.25;98.36
72570;BME280;60594;50.204;8.844;2022-11-30T14:31:39;100578.97;;;8.29;96.49
72570;BME280;60594;50.204;8.844;2022-11-30T14:34:23;100586.94;;;8.29;97.33
72570;BME280;60594;50.204;8.844;2022-11-30T14:37:01;100587.78;;;8.30;96.78
72570;BME280;60594;50.204;8.844;2022-11-30T14:39:37;100583.34;;;8.30;97.20
72570;BME280;60594;50.204;8.844;2022-11-30T14:42:18;100582.78;;;8.25;97.25
72570;BME280;60594;50.204;8.844;2022-11-30T14:44:46;100586.50;;;8.23;97.35
72570;BME280;60594;50.204;8.844;2022-11-30T14:49:51;100594.63;;;8.20;96.72
72570;BME280;60594;50.204;8.844;2022-11-30T14:55:26;100587.97;;;7.86;97.67
72570;BME280;60594;50.204;8.844;2022-11-30T14:58:21;100586.44;;;7.82;98.28
72570;BME280;60594;50.204;8.844;2022-11-30T15:00:52;100591.63;;;7.84;97.88
72570;BME280;60594;50.204;8.844;2022-11-30T15:03:32;100578.34;;;7.84;97.86